DLH807 EDDN-LOWW
Flight info
| Callsign | DLH807 |
|---|---|
| Flight time | 0h 58m |
| Altitude | 25000 |
| Route | RODIS1C/10 RODIS L604 LAMSI DCT VENEN VENEN3W |
| Aircraft | A20N/M-SDE2E3FGHIJ1RWXY/LB1 |
Departure
| Time | 2026-04-21 19:08 |
|---|---|
| Airport | Nuremberg Airport (EDDN) |
Arrival
| Time | 2026-04-21 20:06 |
|---|---|
| Airport | Vienna International Airport (LOWW) |
| Time | Latitude | Longitude | Altitude | Speed | Heading |
|---|---|---|---|---|---|
| 2026-04-21 18:59 | 49.49521 | 11.07725 | 1030 ft | 0 kts | 188° |
| 2026-04-21 19:01 | 49.49537 | 11.07728 | 1029 ft | 2 kts | 188° |
| 2026-04-21 19:02 | 49.49548 | 11.07731 | 1031 ft | 2 kts | 188° |
| 2026-04-21 19:02 | 49.49565 | 11.07734 | 1032 ft | 2 kts | 194° |
| 2026-04-21 19:02 | 49.49579 | 11.07745 | 1032 ft | 2 kts | 226° |
| 2026-04-21 19:02 | 49.49585 | 11.07762 | 1031 ft | 0 kts | 278° |
| 2026-04-21 19:03 | 49.49590 | 11.07704 | 1032 ft | 15 kts | 276° |
| 2026-04-21 19:04 | 49.49603 | 11.07546 | 1030 ft | 15 kts | 279° |
| 2026-04-21 19:04 | 49.49621 | 11.07377 | 1030 ft | 16 kts | 281° |
| 2026-04-21 19:04 | 49.49652 | 11.07239 | 1028 ft | 12 kts | 329° |
| 2026-04-21 19:04 | 49.49727 | 11.07205 | 1028 ft | 11 kts | 320° |
| 2026-04-21 19:05 | 49.49749 | 11.07066 | 1023 ft | 23 kts | 278° |
| 2026-04-21 19:05 | 49.49776 | 11.06803 | 1022 ft | 26 kts | 278° |
| 2026-04-21 19:05 | 49.49804 | 11.06514 | 1021 ft | 27 kts | 279° |
| 2026-04-21 19:05 | 49.49833 | 11.06234 | 1022 ft | 27 kts | 279° |
| 2026-04-21 19:06 | 49.49863 | 11.06019 | 1021 ft | 6 kts | 301° |
| 2026-04-21 19:06 | 49.49928 | 11.05962 | 1023 ft | 17 kts | 0° |
| 2026-04-21 19:06 | 49.49948 | 11.05962 | 1023 ft | 0 kts | 347° |
| 2026-04-21 19:07 | 49.50013 | 11.05948 | 1021 ft | 11 kts | 24° |
| 2026-04-21 19:07 | 49.50041 | 11.06030 | 1022 ft | 4 kts | 96° |
| 2026-04-21 19:07 | 49.50041 | 11.06031 | 1022 ft | 0 kts | 96° |
| 2026-04-21 19:07 | 49.50033 | 11.06142 | 1024 ft | 43 kts | 95° |
| 2026-04-21 19:08 | 49.49956 | 11.07070 | 1027 ft | 132 kts | 98° |
| 2026-04-21 19:08 | 49.49772 | 11.08775 | 1283 ft | 181 kts | 97° |
| 2026-04-21 19:08 | 49.49577 | 11.10870 | 1730 ft | 208 kts | 96° |
| 2026-04-21 19:08 | 49.49373 | 11.13088 | 2850 ft | 207 kts | 95° |
| 2026-04-21 19:09 | 49.49173 | 11.15249 | 3959 ft | 202 kts | 96° |
| 2026-04-21 19:09 | 49.48973 | 11.17405 | 4668 ft | 206 kts | 97° |
| 2026-04-21 19:09 | 49.48768 | 11.19618 | 5071 ft | 211 kts | 97° |
| 2026-04-21 19:09 | 49.48562 | 11.21854 | 5474 ft | 212 kts | 97° |
| 2026-04-21 19:10 | 49.48354 | 11.24115 | 5893 ft | 214 kts | 97° |
| 2026-04-21 19:10 | 49.48144 | 11.26385 | 6321 ft | 215 kts | 97° |
| 2026-04-21 19:10 | 49.47934 | 11.28656 | 6735 ft | 215 kts | 97° |
| 2026-04-21 19:10 | 49.47723 | 11.30937 | 7140 ft | 217 kts | 96° |
| 2026-04-21 19:11 | 49.47510 | 11.33247 | 7542 ft | 220 kts | 96° |
| 2026-04-21 19:11 | 49.47295 | 11.35590 | 7962 ft | 223 kts | 96° |
| 2026-04-21 19:11 | 49.47076 | 11.37968 | 8376 ft | 225 kts | 96° |
| 2026-04-21 19:11 | 49.46945 | 11.40378 | 8798 ft | 227 kts | 90° |
| 2026-04-21 19:12 | 49.46927 | 11.42825 | 9235 ft | 230 kts | 88° |
| 2026-04-21 19:12 | 49.46933 | 11.45300 | 9671 ft | 232 kts | 88° |
| 2026-04-21 19:12 | 49.46950 | 11.47789 | 10105 ft | 235 kts | 87° |
| 2026-04-21 19:12 | 49.46975 | 11.50317 | 10503 ft | 237 kts | 87° |
| 2026-04-21 19:13 | 49.47000 | 11.52862 | 10904 ft | 239 kts | 87° |
| 2026-04-21 19:13 | 49.47029 | 11.55420 | 11307 ft | 240 kts | 87° |
| 2026-04-21 19:13 | 49.47059 | 11.57997 | 11718 ft | 242 kts | 87° |
| 2026-04-21 19:13 | 49.47090 | 11.60588 | 12124 ft | 243 kts | 87° |
| 2026-04-21 19:14 | 49.47120 | 11.63195 | 12554 ft | 244 kts | 87° |
| 2026-04-21 19:14 | 49.47149 | 11.65804 | 12987 ft | 246 kts | 87° |
| 2026-04-21 19:14 | 49.47178 | 11.68442 | 13419 ft | 247 kts | 87° |
| 2026-04-21 19:14 | 49.47207 | 11.71093 | 13942 ft | 252 kts | 86° |
| 2026-04-21 19:15 | 49.47238 | 11.73870 | 14510 ft | 269 kts | 87° |
| 2026-04-21 19:15 | 49.47270 | 11.76833 | 15078 ft | 285 kts | 87° |
| 2026-04-21 19:15 | 49.47302 | 11.79970 | 15655 ft | 301 kts | 87° |
| 2026-04-21 19:15 | 49.47335 | 11.83281 | 16240 ft | 317 kts | 87° |
| 2026-04-21 19:16 | 49.47369 | 11.86733 | 16831 ft | 331 kts | 87° |
| 2026-04-21 19:16 | 49.47402 | 11.90343 | 17438 ft | 344 kts | 87° |
| 2026-04-21 19:16 | 49.47368 | 11.94095 | 18051 ft | 358 kts | 93° |
| 2026-04-21 19:16 | 49.46862 | 11.97906 | 18644 ft | 373 kts | 107° |
| 2026-04-21 19:17 | 49.44276 | 12.05051 | 19747 ft | 397 kts | 122° |
| 2026-04-21 19:17 | 49.42612 | 12.08501 | 20310 ft | 407 kts | 125° |
| 2026-04-21 19:17 | 49.40838 | 12.11942 | 20890 ft | 415 kts | 126° |
| 2026-04-21 19:18 | 49.39011 | 12.15419 | 21487 ft | 422 kts | 126° |
| 2026-04-21 19:18 | 49.37158 | 12.18963 | 22090 ft | 428 kts | 126° |
| 2026-04-21 19:18 | 49.35300 | 12.22561 | 22700 ft | 432 kts | 125° |
| 2026-04-21 19:18 | 49.33437 | 12.26210 | 23327 ft | 437 kts | 125° |
| 2026-04-21 19:19 | 49.31567 | 12.29903 | 23928 ft | 440 kts | 125° |
| 2026-04-21 19:19 | 49.29690 | 12.33624 | 24451 ft | 443 kts | 126° |
| 2026-04-21 19:19 | 49.27794 | 12.37385 | 24855 ft | 450 kts | 126° |
| 2026-04-21 19:19 | 49.25862 | 12.41218 | 24986 ft | 462 kts | 126° |
| 2026-04-21 19:20 | 49.23865 | 12.45177 | 24997 ft | 475 kts | 126° |
| 2026-04-21 19:20 | 49.21832 | 12.49193 | 24995 ft | 478 kts | 126° |
| 2026-04-21 19:20 | 49.19791 | 12.53216 | 24992 ft | 479 kts | 126° |
| 2026-04-21 19:20 | 49.17746 | 12.57234 | 24991 ft | 480 kts | 126° |
| 2026-04-21 19:21 | 49.15689 | 12.61273 | 24990 ft | 480 kts | 126° |
| 2026-04-21 19:21 | 49.13637 | 12.65295 | 24999 ft | 480 kts | 126° |
| 2026-04-21 19:21 | 49.11585 | 12.69312 | 24998 ft | 480 kts | 126° |
| 2026-04-21 19:21 | 49.09527 | 12.73336 | 24999 ft | 480 kts | 126° |
| 2026-04-21 19:22 | 49.07472 | 12.77347 | 24997 ft | 480 kts | 126° |
| 2026-04-21 19:22 | 49.05410 | 12.81368 | 25000 ft | 480 kts | 126° |
| 2026-04-21 19:22 | 49.03353 | 12.85373 | 24999 ft | 480 kts | 126° |
| 2026-04-21 19:22 | 49.01293 | 12.89377 | 24995 ft | 482 kts | 127° |
| 2026-04-21 19:23 | 48.99213 | 12.93417 | 25003 ft | 485 kts | 127° |
| 2026-04-21 19:23 | 48.97124 | 12.97466 | 25004 ft | 487 kts | 127° |
| 2026-04-21 19:23 | 48.95033 | 13.01511 | 25000 ft | 487 kts | 127° |
| 2026-04-21 19:23 | 48.92940 | 13.05555 | 24998 ft | 487 kts | 127° |
| 2026-04-21 19:24 | 48.90846 | 13.09594 | 24997 ft | 487 kts | 127° |
| 2026-04-21 19:24 | 48.88749 | 13.13634 | 24997 ft | 487 kts | 127° |
| 2026-04-21 19:24 | 48.86651 | 13.17669 | 24999 ft | 487 kts | 127° |
| 2026-04-21 19:24 | 48.84552 | 13.21700 | 25002 ft | 487 kts | 127° |
| 2026-04-21 19:25 | 48.82453 | 13.25725 | 25002 ft | 488 kts | 127° |
| 2026-04-21 19:25 | 48.80340 | 13.29770 | 24999 ft | 488 kts | 127° |
| 2026-04-21 19:25 | 48.78230 | 13.33803 | 24999 ft | 488 kts | 127° |
| 2026-04-21 19:25 | 48.76116 | 13.37840 | 25001 ft | 488 kts | 127° |
| 2026-04-21 19:26 | 48.74004 | 13.41864 | 24993 ft | 488 kts | 127° |
| 2026-04-21 19:26 | 48.71883 | 13.45902 | 24995 ft | 491 kts | 128° |
| 2026-04-21 19:26 | 48.69746 | 13.49963 | 24997 ft | 494 kts | 128° |
| 2026-04-21 19:26 | 48.67602 | 13.54031 | 24999 ft | 495 kts | 128° |
| 2026-04-21 19:27 | 48.65503 | 13.58167 | 24996 ft | 495 kts | 122° |
| 2026-04-21 19:27 | 48.64057 | 13.62855 | 25001 ft | 492 kts | 105° |
| 2026-04-21 19:27 | 48.63485 | 13.67917 | 25004 ft | 489 kts | 91° |
| 2026-04-21 19:27 | 48.63365 | 13.73060 | 25002 ft | 489 kts | 90° |
| 2026-04-21 19:28 | 48.63200 | 13.78194 | 25001 ft | 490 kts | 92° |
| 2026-04-21 19:28 | 48.62926 | 13.83324 | 25001 ft | 490 kts | 94° |
| 2026-04-21 19:28 | 48.62574 | 13.88450 | 25004 ft | 490 kts | 95° |
| 2026-04-21 19:28 | 48.62176 | 13.93534 | 24992 ft | 479 kts | 95° |
| 2026-04-21 19:29 | 48.61764 | 13.98434 | 24910 ft | 459 kts | 96° |
| 2026-04-21 19:29 | 48.61357 | 14.03117 | 24798 ft | 442 kts | 96° |
| 2026-04-21 19:29 | 48.60956 | 14.07638 | 24642 ft | 427 kts | 96° |
| 2026-04-21 19:29 | 48.60562 | 14.12024 | 24451 ft | 415 kts | 96° |
| 2026-04-21 19:30 | 48.60176 | 14.16278 | 24236 ft | 404 kts | 96° |
| 2026-04-21 19:30 | 48.59797 | 14.20435 | 23991 ft | 394 kts | 96° |
| 2026-04-21 19:30 | 48.59425 | 14.24489 | 23733 ft | 386 kts | 96° |
| 2026-04-21 19:30 | 48.59058 | 14.28466 | 23396 ft | 379 kts | 96° |
| 2026-04-21 19:31 | 48.58697 | 14.32369 | 23061 ft | 372 kts | 96° |
| 2026-04-21 19:31 | 48.58339 | 14.36212 | 22706 ft | 366 kts | 96° |
| 2026-04-21 19:31 | 48.57987 | 14.39986 | 22342 ft | 360 kts | 96° |
| 2026-04-21 19:31 | 48.57638 | 14.43704 | 22001 ft | 355 kts | 96° |
| 2026-04-21 19:32 | 48.57299 | 14.47316 | 21654 ft | 350 kts | 96° |
| 2026-04-21 19:32 | 48.56953 | 14.50979 | 21304 ft | 346 kts | 96° |
| 2026-04-21 19:32 | 48.56650 | 14.54562 | 20869 ft | 351 kts | 94° |
| 2026-04-21 19:32 | 48.56443 | 14.58274 | 20086 ft | 358 kts | 92° |
| 2026-04-21 19:33 | 48.56320 | 14.60820 | 19485 ft | 364 kts | 92° |
| 2026-04-21 19:33 | 48.56079 | 14.65942 | 18341 ft | 375 kts | 92° |
| 2026-04-21 19:33 | 48.55888 | 14.69909 | 17382 ft | 380 kts | 92° |
| 2026-04-21 19:33 | 48.55693 | 14.73906 | 16441 ft | 384 kts | 92° |
| 2026-04-21 19:34 | 48.55493 | 14.77952 | 15538 ft | 387 kts | 92° |
| 2026-04-21 19:34 | 48.55290 | 14.82011 | 14652 ft | 388 kts | 92° |
| 2026-04-21 19:34 | 48.55086 | 14.86073 | 13771 ft | 389 kts | 92° |
| 2026-04-21 19:34 | 48.54885 | 14.90142 | 12821 ft | 388 kts | 92° |
| 2026-04-21 19:35 | 48.54676 | 14.94193 | 11900 ft | 387 kts | 93° |
| 2026-04-21 19:35 | 48.54255 | 15.02253 | 10126 ft | 383 kts | 92° |
| 2026-04-21 19:35 | 48.54047 | 15.06233 | 9163 ft | 379 kts | 92° |
| 2026-04-21 19:36 | 48.53840 | 15.10160 | 8251 ft | 373 kts | 92° |
| 2026-04-21 19:36 | 48.53634 | 15.14045 | 7334 ft | 368 kts | 93° |
| 2026-04-21 19:36 | 48.53430 | 15.17847 | 6557 ft | 360 kts | 93° |
| 2026-04-21 19:36 | 48.53232 | 15.21517 | 6102 ft | 344 kts | 93° |
| 2026-04-21 19:37 | 48.53043 | 15.25010 | 5981 ft | 319 kts | 93° |
| 2026-04-21 19:37 | 48.52867 | 15.28220 | 5976 ft | 295 kts | 92° |
| 2026-04-21 19:37 | 48.52705 | 15.31185 | 5982 ft | 273 kts | 92° |
| 2026-04-21 19:37 | 48.52554 | 15.33952 | 5982 ft | 260 kts | 92° |
| 2026-04-21 19:38 | 48.52407 | 15.36658 | 5988 ft | 258 kts | 92° |
| 2026-04-21 19:38 | 48.52261 | 15.39360 | 5987 ft | 259 kts | 92° |
| 2026-04-21 19:38 | 48.52163 | 15.41147 | 5981 ft | 259 kts | 92° |
| 2026-04-21 19:38 | 48.51964 | 15.44770 | 5979 ft | 259 kts | 92° |
| 2026-04-21 19:39 | 48.51814 | 15.47482 | 5981 ft | 259 kts | 93° |
| 2026-04-21 19:39 | 48.51663 | 15.50195 | 5980 ft | 260 kts | 92° |
| 2026-04-21 19:39 | 48.51509 | 15.52978 | 5994 ft | 286 kts | 93° |
| 2026-04-21 19:39 | 48.51338 | 15.56075 | 5986 ft | 303 kts | 93° |
| 2026-04-21 19:40 | 48.51158 | 15.59258 | 5972 ft | 307 kts | 93° |
| 2026-04-21 19:40 | 48.50975 | 15.62478 | 5972 ft | 307 kts | 93° |
| 2026-04-21 19:40 | 48.50791 | 15.65691 | 5973 ft | 307 kts | 93° |
| 2026-04-21 19:40 | 48.50605 | 15.68890 | 5973 ft | 307 kts | 93° |
| 2026-04-21 19:41 | 48.50417 | 15.72105 | 6025 ft | 307 kts | 93° |
| 2026-04-21 19:41 | 48.50229 | 15.75320 | 6030 ft | 307 kts | 93° |
| 2026-04-21 19:41 | 48.50040 | 15.78525 | 6027 ft | 308 kts | 93° |
| 2026-04-21 19:41 | 48.49851 | 15.81736 | 6019 ft | 308 kts | 93° |
| 2026-04-21 19:42 | 48.49661 | 15.84952 | 6017 ft | 308 kts | 93° |
| 2026-04-21 19:42 | 48.49470 | 15.88168 | 6020 ft | 308 kts | 93° |
| 2026-04-21 19:42 | 48.49278 | 15.91382 | 6024 ft | 308 kts | 93° |
| 2026-04-21 19:42 | 48.49085 | 15.94588 | 6020 ft | 308 kts | 93° |
| 2026-04-21 19:43 | 48.48891 | 15.97805 | 6024 ft | 308 kts | 93° |
| 2026-04-21 19:43 | 48.48696 | 16.01007 | 6016 ft | 307 kts | 93° |
| 2026-04-21 19:43 | 48.48500 | 16.04224 | 6024 ft | 307 kts | 93° |
| 2026-04-21 19:43 | 48.48303 | 16.07437 | 6016 ft | 308 kts | 93° |
| 2026-04-21 19:44 | 48.48129 | 16.10686 | 6004 ft | 307 kts | 91° |
| 2026-04-21 19:44 | 48.47999 | 16.13862 | 6008 ft | 307 kts | 91° |
| 2026-04-21 19:44 | 48.47876 | 16.17073 | 6007 ft | 307 kts | 91° |
| 2026-04-21 19:44 | 48.47753 | 16.20291 | 6016 ft | 308 kts | 91° |
| 2026-04-21 19:45 | 48.47669 | 16.22463 | 6010 ft | 308 kts | 91° |
| 2026-04-21 19:45 | 48.47544 | 16.25683 | 6005 ft | 307 kts | 91° |
| 2026-04-21 19:45 | 48.47377 | 16.29943 | 6001 ft | 308 kts | 91° |
| 2026-04-21 19:45 | 48.47250 | 16.33203 | 6018 ft | 325 kts | 91° |
| 2026-04-21 19:46 | 48.47159 | 16.35585 | 6015 ft | 345 kts | 91° |
| 2026-04-21 19:46 | 48.47013 | 16.39256 | 6011 ft | 354 kts | 91° |
| 2026-04-21 19:46 | 48.46862 | 16.42962 | 6011 ft | 355 kts | 91° |
| 2026-04-21 19:46 | 48.46708 | 16.46681 | 6006 ft | 355 kts | 91° |
| 2026-04-21 19:47 | 48.46555 | 16.50388 | 6000 ft | 355 kts | 91° |
| 2026-04-21 19:47 | 48.46424 | 16.54108 | 6004 ft | 355 kts | 89° |
| 2026-04-21 19:47 | 48.46203 | 16.57815 | 5999 ft | 358 kts | 103° |
| 2026-04-21 19:47 | 48.45065 | 16.61165 | 6022 ft | 365 kts | 127° |
| 2026-04-21 19:48 | 48.43112 | 16.63599 | 6005 ft | 370 kts | 150° |
| 2026-04-21 19:48 | 48.40648 | 16.64701 | 6010 ft | 374 kts | 173° |
| 2026-04-21 19:48 | 48.38090 | 16.64353 | 6011 ft | 376 kts | 191° |
| 2026-04-21 19:48 | 48.35515 | 16.63702 | 6010 ft | 376 kts | 184° |
| 2026-04-21 19:49 | 48.32906 | 16.63606 | 6011 ft | 374 kts | 176° |
| 2026-04-21 19:49 | 48.30314 | 16.63967 | 6014 ft | 374 kts | 171° |
| 2026-04-21 19:49 | 48.27756 | 16.64626 | 6017 ft | 373 kts | 167° |
| 2026-04-21 19:49 | 48.25216 | 16.65460 | 6019 ft | 373 kts | 165° |
| 2026-04-21 19:50 | 48.22705 | 16.66387 | 6014 ft | 372 kts | 164° |
| 2026-04-21 19:50 | 48.20197 | 16.67370 | 6019 ft | 372 kts | 163° |
| 2026-04-21 19:50 | 48.17696 | 16.68380 | 6024 ft | 372 kts | 163° |
| 2026-04-21 19:50 | 48.15196 | 16.69405 | 6019 ft | 372 kts | 163° |
| 2026-04-21 19:51 | 48.12703 | 16.70436 | 6013 ft | 365 kts | 163° |
| 2026-04-21 19:51 | 48.10332 | 16.71417 | 6012 ft | 346 kts | 163° |
| 2026-04-21 19:51 | 48.08032 | 16.72370 | 6019 ft | 339 kts | 162° |
| 2026-04-21 19:51 | 48.05837 | 16.73280 | 6009 ft | 316 kts | 162° |
| 2026-04-21 19:52 | 48.03790 | 16.74127 | 6007 ft | 294 kts | 162° |
| 2026-04-21 19:52 | 48.01878 | 16.74920 | 6007 ft | 279 kts | 162° |
| 2026-04-21 19:52 | 48.00013 | 16.75696 | 6011 ft | 278 kts | 162° |
| 2026-04-21 19:52 | 47.98148 | 16.76472 | 6010 ft | 278 kts | 162° |
| 2026-04-21 19:53 | 47.96282 | 16.77247 | 6008 ft | 279 kts | 162° |
| 2026-04-21 19:53 | 47.94413 | 16.78021 | 6010 ft | 279 kts | 162° |
| 2026-04-21 19:53 | 47.92540 | 16.78796 | 6005 ft | 279 kts | 162° |
| 2026-04-21 19:53 | 47.90669 | 16.79568 | 6003 ft | 278 kts | 162° |
| 2026-04-21 19:54 | 47.88806 | 16.80336 | 6003 ft | 278 kts | 162° |
| 2026-04-21 19:54 | 47.86942 | 16.81104 | 5999 ft | 278 kts | 162° |
| 2026-04-21 19:54 | 47.85074 | 16.81873 | 5999 ft | 278 kts | 162° |
| 2026-04-21 19:54 | 47.83204 | 16.82642 | 5989 ft | 279 kts | 162° |
| 2026-04-21 19:55 | 47.81323 | 16.83416 | 5986 ft | 281 kts | 162° |
| 2026-04-21 19:55 | 47.79439 | 16.84190 | 5984 ft | 282 kts | 162° |
| 2026-04-21 19:55 | 47.77548 | 16.84966 | 5984 ft | 282 kts | 162° |
| 2026-04-21 19:55 | 47.75652 | 16.85744 | 5984 ft | 282 kts | 162° |
| 2026-04-21 19:56 | 47.73750 | 16.86490 | 5983 ft | 283 kts | 167° |
| 2026-04-21 19:56 | 47.71829 | 16.86639 | 5976 ft | 271 kts | 186° |
| 2026-04-21 19:56 | 47.70080 | 16.85807 | 5979 ft | 263 kts | 212° |
| 2026-04-21 19:56 | 47.68769 | 16.83981 | 5985 ft | 259 kts | 240° |
| 2026-04-21 19:57 | 47.68193 | 16.81591 | 5969 ft | 240 kts | 269° |
| 2026-04-21 19:57 | 47.68419 | 16.79348 | 6017 ft | 205 kts | 304° |
| 2026-04-21 19:57 | 47.69374 | 16.78007 | 5950 ft | 177 kts | 333° |
| 2026-04-21 19:57 | 47.70409 | 16.77200 | 5805 ft | 165 kts | 338° |
| 2026-04-21 19:58 | 47.71418 | 16.76481 | 5567 ft | 158 kts | 338° |
| 2026-04-21 19:58 | 47.72518 | 16.75698 | 5379 ft | 197 kts | 338° |
| 2026-04-21 19:58 | 47.73818 | 16.74741 | 5189 ft | 216 kts | 336° |
| 2026-04-21 19:58 | 47.75167 | 16.73711 | 4991 ft | 219 kts | 335° |
| 2026-04-21 19:59 | 47.76527 | 16.72697 | 4776 ft | 218 kts | 340° |
| 2026-04-21 19:59 | 47.77954 | 16.71965 | 4506 ft | 216 kts | 346° |
| 2026-04-21 19:59 | 47.79395 | 16.71355 | 4204 ft | 215 kts | 347° |
| 2026-04-21 19:59 | 47.80830 | 16.70769 | 3992 ft | 214 kts | 347° |
| 2026-04-21 20:00 | 47.82267 | 16.70182 | 3963 ft | 214 kts | 347° |
| 2026-04-21 20:00 | 47.83697 | 16.69595 | 3976 ft | 213 kts | 347° |
| 2026-04-21 20:00 | 47.85127 | 16.69013 | 3984 ft | 212 kts | 347° |
| 2026-04-21 20:00 | 47.86555 | 16.68434 | 3970 ft | 214 kts | 347° |
| 2026-04-21 20:01 | 47.87991 | 16.67853 | 3967 ft | 210 kts | 347° |
| 2026-04-21 20:01 | 47.89339 | 16.67302 | 3887 ft | 192 kts | 348° |
| 2026-04-21 20:01 | 47.90576 | 16.66796 | 3748 ft | 178 kts | 348° |
| 2026-04-21 20:01 | 47.91727 | 16.66328 | 3550 ft | 165 kts | 348° |
| 2026-04-21 20:02 | 47.92795 | 16.65885 | 3271 ft | 155 kts | 348° |
| 2026-04-21 20:02 | 47.93812 | 16.65460 | 3019 ft | 150 kts | 349° |
| 2026-04-21 20:02 | 47.94779 | 16.65054 | 2900 ft | 136 kts | 348° |
| 2026-04-21 20:02 | 47.95641 | 16.64687 | 2721 ft | 123 kts | 348° |
| 2026-04-21 20:03 | 47.96489 | 16.64337 | 2400 ft | 140 kts | 348° |
| 2026-04-21 20:03 | 47.97508 | 16.63924 | 2061 ft | 160 kts | 347° |
| 2026-04-21 20:03 | 47.98600 | 16.63470 | 1998 ft | 166 kts | 347° |
| 2026-04-21 20:03 | 47.99741 | 16.62990 | 1964 ft | 173 kts | 347° |
| 2026-04-21 20:04 | 48.00906 | 16.62497 | 1959 ft | 175 kts | 347° |
| 2026-04-21 20:04 | 48.02063 | 16.62006 | 1929 ft | 167 kts | 347° |
| 2026-04-21 20:04 | 48.03136 | 16.61543 | 1767 ft | 154 kts | 346° |
| 2026-04-21 20:04 | 48.04124 | 16.61124 | 1594 ft | 141 kts | 347° |
| 2026-04-21 20:05 | 48.05045 | 16.60750 | 1392 ft | 134 kts | 347° |
| 2026-04-21 20:05 | 48.05920 | 16.60401 | 1188 ft | 128 kts | 344° |
| 2026-04-21 20:05 | 48.06761 | 16.60040 | 1030 ft | 121 kts | 342° |
| 2026-04-21 20:05 | 48.07552 | 16.59695 | 852 ft | 115 kts | 342° |
| 2026-04-21 20:06 | 48.08288 | 16.59389 | 727 ft | 104 kts | 342° |
| 2026-04-21 20:06 | 48.08994 | 16.59086 | 656 ft | 109 kts | 341° |
| 2026-04-21 20:06 | 48.09732 | 16.58747 | 635 ft | 112 kts | 343° |
| 2026-04-21 20:06 | 48.10280 | 16.58526 | 623 ft | 42 kts | 345° |
| 2026-04-21 20:07 | 48.10353 | 16.58498 | 619 ft | 2 kts | 345° |
| 2026-04-21 20:07 | 48.10369 | 16.58491 | 621 ft | 4 kts | 345° |
| 2026-04-21 20:07 | 48.10468 | 16.58452 | 613 ft | 20 kts | 345° |
| 2026-04-21 20:07 | 48.10631 | 16.58373 | 619 ft | 37 kts | 334° |
| 2026-04-21 20:08 | 48.10786 | 16.58189 | 614 ft | 12 kts | 311° |
| 2026-04-21 20:08 | 48.10846 | 16.58094 | 613 ft | 14 kts | 314° |
| 2026-04-21 20:08 | 48.10907 | 16.58008 | 623 ft | 0 kts | 317° |
| 2026-04-21 20:09 | 48.10916 | 16.57997 | 623 ft | 5 kts | 319° |
| 2026-04-21 20:09 | 48.10994 | 16.57879 | 630 ft | 14 kts | 322° |
| 2026-04-21 20:09 | 48.11061 | 16.57902 | 612 ft | 17 kts | 8° |
| 2026-04-21 20:10 | 48.11187 | 16.57872 | 622 ft | 20 kts | 346° |
| 2026-04-21 20:10 | 48.11322 | 16.57814 | 622 ft | 21 kts | 343° |
| 2026-04-21 20:10 | 48.11463 | 16.57756 | 625 ft | 17 kts | 344° |
| 2026-04-21 20:10 | 48.11607 | 16.57695 | 623 ft | 27 kts | 344° |
| 2026-04-21 20:11 | 48.11699 | 16.57610 | 612 ft | 12 kts | 270° |
| 2026-04-21 20:11 | 48.11638 | 16.57549 | 614 ft | 12 kts | 183° |
| 2026-04-21 20:11 | 48.11571 | 16.57514 | 614 ft | 6 kts | 227° |
| 2026-04-21 20:11 | 48.11439 | 16.57422 | 624 ft | 28 kts | 206° |
| 2026-04-21 20:12 | 48.11305 | 16.57285 | 622 ft | 17 kts | 271° |
| 2026-04-21 20:12 | 48.11365 | 16.57080 | 626 ft | 23 kts | 296° |
| 2026-04-21 20:12 | 48.11438 | 16.56850 | 622 ft | 26 kts | 296° |
| 2026-04-21 20:12 | 48.11521 | 16.56598 | 618 ft | 29 kts | 296° |
| 2026-04-21 20:13 | 48.11610 | 16.56326 | 620 ft | 26 kts | 295° |
| 2026-04-21 20:13 | 48.11726 | 16.56291 | 616 ft | 21 kts | 27° |
| 2026-04-21 20:13 | 48.11744 | 16.56422 | 620 ft | 13 kts | 105° |
| 2026-04-21 20:13 | 48.11775 | 16.56502 | 605 ft | 10 kts | 30° |
| 2026-04-21 20:14 | 48.11797 | 16.56528 | 612 ft | 0 kts | 26° |